Flight Track Log - Related Links

Times and Time Zones

All times are in EDT time to prevent confusion due to time zone crossing. See the SWA1886 flight status page for this flight to view local times or setup timezone preferences in your user account.

Time Position Orientation Groundspeed Altitude Reporting Facility
EDT Latitude Longitude Course Direction KTS MPH feet Rate Location/Type
Tue 03:17:46 PM 38.6192 -121.4783 122° Southeast 255 293 6,200  Level Oakland Center
Tue 03:18:46 PM 38.5778 -121.3931 120° Southeast 293 337 9,600 3,700 Climbing Oakland Center
Tue 03:19:46 PM 38.5342 -121.2975 123° Southeast 338 389 13,600 4,050 Climbing Oakland Center
Tue 03:20:46 PM 38.4844 -121.1989 122° Southeast 341 392 17,700 3,650 Climbing Oakland Center
Tue 03:21:46 PM 38.4303 -121.0900 121° Southeast 366 421 20,900 3,150 Climbing Oakland Center
Tue 03:22:46 PM 38.3719 -120.9681 122° Southeast 390 449 24,000 2,975 Climbing Oakland Center
Tue 03:23:47 PM 38.3092 -120.8411 122° Southeast 409 471 26,900 2,800 Climbing Oakland Center
Tue 03:24:46 PM 38.2422 -120.7064 137° Southeast 431 496 29,600 2,750 Climbing Oakland Center
Tue 03:25:47 PM 38.1481 -120.5958 141° Southeast 449 517 32,400 2,600 Climbing Oakland Center
Tue 03:26:46 PM 38.0497 -120.4961 143° Southeast 449 517 34,800 2,319 Climbing Oakland Center
Tue 03:27:46 PM 37.9514 -120.4019 142° Southeast 449 517 37,000 1,100 Climbing Oakland Center
Tue 03:28:46 PM 37.8506 -120.3028 142° Southeast 454 522 37,000  Level Oakland Center
Tue 03:29:46 PM 37.7519 -120.2064 143° Southeast 454 522 37,000  Level Oakland Center
Tue 03:30:47 PM 37.6511 -120.1106 143° Southeast 454 522 37,000  Level Oakland Center
Tue 03:31:46 PM 37.5503 -120.0147 142° Southeast 454 522 37,000  Level Oakland Center
Tue 03:32:46 PM 37.4514 -119.9192 159° South 454 522 37,000  Level Oakland Center
Tue 03:33:46 PM 37.3383 -119.8658 171° South 449 517 37,000  Level Oakland Center
Tue 03:34:46 PM 37.2192 -119.8417 171° South 428 493 37,000 -500 Level Oakland Center
Tue 03:35:46 PM 37.1000 -119.8175 176° South 434 499 36,000 -1,000 Descending Oakland Center
Tue 03:36:46 PM 36.9728 -119.8064 170° South 427 491 35,000 -1,000 Descending Oakland Center
Tue 03:37:46 PM 36.8536 -119.7797 172° South 427 491 34,000 -942 Descending Oakland Center
Tue 03:38:47 PM 36.7303 -119.7583 171° South 432 497 33,100 -950 Descending Oakland Center
Tue 03:39:46 PM 36.6089 -119.7344 171° South 437 503 32,100 -1,008 Descending Oakland Center
Tue 03:40:46 PM 36.4878 -119.7106 171° South 443 510 31,100 -508 Descending Oakland Center
Tue 03:41:56 PM 36.3497 -119.6844 171° South 443 510 31,000 -46 Descending Los Angeles Center
Tue 03:42:56 PM 36.2294 -119.6611 171° South 448 516 31,000  Level Los Angeles Center
Tue 03:43:55 PM 36.1092 -119.6378 172° South 441 507 31,000  Level Los Angeles Center
Tue 03:44:56 PM 35.9886 -119.6172 180° South 441 507 31,000  Level Los Angeles Center
Tue 03:45:56 PM 35.8822 -119.6178 187° South 441 507 31,000  Level Los Angeles Center
Tue 03:46:56 PM 35.7647 -119.6356 211° Southwest 436 502 31,000  Level Los Angeles Center
Tue 03:47:56 PM 35.6711 -119.7056 211° Southwest 400 460 31,000  Level Los Angeles Center
Tue 03:48:56 PM 35.5772 -119.7756 211° Southwest 393 452 31,000  Level Los Angeles Center
Tue 03:49:55 PM 35.4897 -119.8406 185° South 393 452 31,000  Level Los Angeles Center
Tue 03:50:56 PM 35.3808 -119.8533 142° Southeast 378 435 31,000 -400 Level Los Angeles Center
Tue 03:51:55 PM 35.2814 -119.7572 141° Southeast 373 429 30,200 -1,500 Descending Los Angeles Center
Tue 03:52:56 PM 35.1903 -119.6669 142° Southeast 390 449 28,000 -2,182 Descending Los Angeles Center
Tue 03:53:56 PM 35.0989 -119.5792 141° Southeast 409 471 25,800 -2,150 Descending Los Angeles Center
Tue 03:54:56 PM 35.0136 -119.4944 142° Southeast 409 471 23,700 -2,050 Descending Los Angeles Center
Tue 03:55:56 PM 34.9281 -119.4125 140° Southeast 404 465 21,700 -2,000 Descending Los Angeles Center
Tue 03:56:56 PM 34.8467 -119.3306 143° Southeast 393 452 19,700 -1,950 Descending Los Angeles Center
Tue 03:57:56 PM 34.7694 -119.2594 143° Southeast 378 435 17,800 -1,916 Descending Los Angeles Center
Tue 03:58:55 PM 34.6897 -119.1856 144° Southeast 367 422 15,900 -1,950 Descending Los Angeles Center
Tue 03:59:56 PM 34.6103 -119.1144 143° Southeast 353 406 13,900 -1,934 Descending Los Angeles Center
Tue 04:00:56 PM 34.5389 -119.0489 142° Southeast 335 386 12,000 -1,600 Descending Los Angeles Center
Tue 04:01:56 PM 34.4694 -118.9836 145° Southeast 328 377 10,700 -1,500 Descending Los Angeles Center
Tue 04:02:56 PM 34.4019 -118.9258 139° Southeast 316 364 9,000 -1,600 Descending Los Angeles Center
Tue 04:03:56 PM 34.3408 -118.8608 125° Southeast 293 337 7,500 -1,550 Descending Los Angeles Center
Tue 04:04:56 PM 34.2964 -118.7842 120° Southeast 280 322 5,900 -1,450 Descending Los Angeles Center
Tue 04:05:56 PM 34.2606 -118.7100 112° Southeast 280 322 4,600 -1,450 Descending Los Angeles Center
Tue 04:06:56 PM 34.2311 -118.6211 107° East 265 305 3,000 -800 Descending Los Angeles Center
Tue 04:07:56 PM 34.2136 -118.5528 102° East 245 282 3,000 -50 Level Los Angeles Center
Tue 04:08:56 PM 34.2006 -118.4794 94° East 206 237 2,900 -600 Descending Los Angeles Center
Tue 04:09:56 PM 34.1975 -118.4242 94° East 174 200 1,800 -733 Descending Los Angeles Center
Tue 04:11:56 PM 34.1928 -118.3364 94° East 152 175 700 -550 Descending Los Angeles Center

Login

Don't have an account? Register now (free) for customized features, flight alerts, and more!